Portada
METAR-TAF:

METAR-TAF

Aeroports :

Txeboksari, Rússia

latitud: 56-05-24N, longitud: 047-20-50E, altitud: 171 m

Observació

L'informe es va fer fa 18 minuts, a les 15:00 UTC
Vent 16 kt del Sud/Sud-Oest
Temperatura 0°C
Humitat 86%
Pressió 1012 hPa
Visibilitat 10 km o més
Núvols disperses a una alçada de 1700 ft

METAR: UWKS 091500Z 21008MPS 9999 SCT017 00/M02 Q1012 R24/920350 NOSIG RMK QFE745

Hora: 18:18 (15:18 UTC)

Pronòstic

L'informe es va fer fa 1 hora i 24 minuts, a les 13:54 UTC
Pronòstic vàlid del 09 a les 15 UTC al 09 a les 24 UTC
Vent 16 kt del Sud/Sud-Oest amb ràfegues de 27 kt
Visibilitat 10 km o més
Cel ennuvolat a una alçada de 1600 ft
Temporalment
l' 09 a les 18 UTC al 09 a les 24 UTC
Visibilitat: 3100 m
Núvols disperses a una alçada de 700 ft
Cel ennuvolat a una alçada de 1100 ft, Cumulonimbus.
xàfecs de pluja, neu

TAF: UWKS 091354Z 0915/0924 20008G14MPS 9999 BKN016 TX01/0923Z TNM00/0915Z TEMPO 0918/0924 3100 -SHRASN SCT007 BKN011CB

Observacions i pronòstics meteorològics de més de 4000 aeroports (METAR i TAF).

Les estacions disponibles són els punts grocs i vermells al mapa.

Posi el ratolí al punt desitjat per veure el nom de l'estació.

Feu clic per veure les observacions i els pronòstics meteorològics.

Per canviar el mapa: feu clic els botons verds amb una creu de color negre per apropar; al botó verd amb un guió per allunyar la imatge; o en les fletxes verdes per a mapes adjacents.


METAR-TAF: